Pleasanton, CA

6:11 PM PDT on July 24, 2016 (GMT -0700)
Pleasanton Downtown | | Change Station

Elev 384 ft 37.66 °N, 121.87 °W | Updated 14 seconds ago

Clear
Clear
100.9 °F
Feels Like 102 °F
N
1.0
Wind Variable Wind from SSW
Gusts 2.0 mph

Today
High -- | Low -- °F
--% Chance of Precip.
Yesterday
High -- | Low -- °F
Precip. -- in
Pressure 29.80 in
Visibility 10.0 miles
Clouds Clear
Heat Index 102 °F
Dew Point 59 °F
Humidity 26%
Rainfall 0.00 in
Snow Depth Not available.
6:05 AM 8:22 PM
Waning Gibbous, 71% visible
METAR KLVK 250053Z 30013KT 10SM CLR 33/09 A2981 RMK AO2 SLP091 T03330094
Pressure 29.80 in
Visibility 10.0 miles
Clouds Clear
Heat Index 102 °F
Dew Point 59 °F
Humidity 26%
Rainfall 0.00 in
Snow Depth Not available.
6:05 AM 8:22 PM
Waning Gibbous, 71% visible
METAR KLVK 250053Z 30013KT 10SM CLR 33/09 A2981 RMK AO2 SLP091 T03330094

10-Day Weather Forecast

Almanac

Astronomy

Jul. 24, 2016 Rise Set
Actual Time
Civil Twilight
Nautical Twilight
Astronomical Twilight
Moon
Length of Visible Light
Length of Day
Tomorrow will be .
, % of the Moon is Illuminated

Today's Extremes

State Highs State Lows

Community

WunderPhotos

Upload Photos

1,927,225 photos uploaded!

WunderBlog® & News

Nearby

Air Quality

  Air Quality AQ Index Pollutant
Not available.

Snow Depth

Station Depth Elevation

Earthquake Activity

City Distance Mag. Time & Date
Minimum magnitude displayed is 2.5.

Coastal Water Temperatures

Place Temperature

Stations

Nearby Weather Stations

Station Location Temp. Windchill Dew Point Humidity Wind Precip. Elev Updated Type
                   

Watches & Warnings

There are currently no watches in effect.